Time;durP1;ratioP1;P1;durP2;ratioP2;P2;SDS_P1;SDS_P2;PMS_P1;PMS_P2;Temp;Humidity;BMP_temperature;BMP_pressure;BME280_temperature;BME280_humidity;BME280_pressure;Samples;Min_cycle;Max_cycle;Signal;HPM_P1;HPM_P2
2022/05/23 00:03:06;;;;;;;2.40;1.05;;;21.10;59.80;;;;;;10094672;28;20021;-64
2022/05/23 00:07:59;;;;;;;2.05;1.30;;;21.10;60.10;;;;;;10094221;28;20108;-63
2022/05/23 00:12:49;;;;;;;3.00;2.10;;;21.10;60.30;;;;;;10093451;28;20095;-64
2022/05/23 00:17:41;;;;;;;2.33;1.33;;;21.20;60.60;;;;;;10095476;28;20021;-65
2022/05/23 00:22:32;;;;;;;2.75;1.60;;;21.20;60.50;;;;;;10088445;28;20479;-64
2022/05/23 00:27:23;;;;;;;2.85;1.27;;;21.20;60.60;;;;;;10093435;28;20049;-63
2022/05/23 00:37:23;;;;;;;1.92;1.20;;;21.00;61.40;;;;;;10093102;28;20032;-63
2022/05/23 00:47:29;;;;;;;4.15;1.35;;;21.00;61.50;;;;;;10083090;28;20398;-64
2022/05/23 00:52:23;;;;;;;1.60;1.50;;;20.90;61.80;;;;;;10092338;28;20037;-64
2022/05/23 00:57:22;;;;;;;1.92;1.45;;;20.90;61.80;;;;;;10096177;28;20029;-65
2022/05/23 01:02:14;;;;;;;1.80;1.27;;;21.00;61.90;;;;;;10092223;28;20374;-66
2022/05/23 01:07:06;;;;;;;2.95;1.45;;;21.00;61.80;;;;;;10091346;28;20020;-64
2022/05/23 01:11:59;;;;;;;6.63;1.70;;;21.00;61.90;;;;;;10094202;28;20602;-65
2022/05/23 01:16:50;;;;;;;3.40;1.98;;;20.90;62.10;;;;;;10095653;28;20036;-63
2022/05/23 01:21:57;;;;;;;2.35;1.40;;;20.80;62.50;;;;;;10086946;28;20021;-65
2022/05/23 01:26:50;;;;;;;2.95;1.60;;;20.70;62.80;;;;;;10091911;28;20049;-64
2022/05/23 01:31:43;;;;;;;3.13;1.92;;;20.50;62.90;;;;;;10092886;28;20116;-65
2022/05/23 01:36:34;;;;;;;5.10;2.70;;;20.40;63.30;;;;;;10098999;28;20016;-64
2022/05/23 01:41:25;;;;;;;3.53;1.90;;;20.40;63.20;;;;;;10098322;28;20029;-64
2022/05/23 01:46:16;;;;;;;2.83;1.40;;;20.20;63.90;;;;;;10092791;28;20615;-65
2022/05/23 01:51:07;;;;;;;2.63;1.50;;;20.40;63.90;;;;;;10095571;28;20309;-64
2022/05/23 01:55:58;;;;;;;2.70;1.75;;;20.40;63.70;;;;;;10094191;28;20074;-64
2022/05/23 02:05:58;;;;;;;1.45;1.30;;;20.60;63.70;;;;;;10097045;28;20301;-64
2022/05/23 02:10:48;;;;;;;1.60;1.33;;;20.60;63.90;;;;;;10091245;28;20424;-64
2022/05/23 02:15:42;;;;;;;4.13;1.38;;;20.40;64.40;;;;;;10101466;28;20052;-64
2022/05/23 02:20:33;;;;;;;2.10;1.48;;;20.30;64.70;;;;;;10099581;28;20075;-65
2022/05/23 02:25:25;;;;;;;3.90;1.60;;;20.50;64.70;;;;;;10099600;28;20025;-65
2022/05/23 02:30:16;;;;;;;2.15;1.40;;;20.50;64.70;;;;;;10100652;28;20132;-64
2022/05/23 02:35:07;;;;;;;1.95;1.50;;;20.40;64.90;;;;;;10103802;28;20167;-64
2022/05/23 02:39:58;;;;;;;2.03;1.58;;;20.30;65.10;;;;;;10099482;28;20581;-64
2022/05/23 02:44:49;;;;;;;2.95;1.85;;;20.20;65.30;;;;;;10099664;28;20028;-64
2022/05/23 02:49:39;;;;;;;2.28;1.50;;;20.10;65.60;;;;;;10107068;28;20237;-64
2022/05/23 02:54:30;;;;;;;2.60;2.10;;;19.90;66.00;;;;;;10098195;28;20095;-63
2022/05/23 02:59:21;;;;;;;3.08;1.63;;;19.40;67.20;;;;;;10096984;28;20492;-65
2022/05/23 03:04:11;;;;;;;2.45;2.05;;;19.40;67.70;;;;;;10104827;28;20057;-65
2022/05/23 03:09:03;;;;;;;2.58;1.73;;;19.50;67.80;;;;;;10096210;28;20482;-64
2022/05/23 03:13:54;;;;;;;3.15;1.55;;;19.50;67.60;;;;;;10095727;28;20036;-61
2022/05/23 03:18:45;;;;;;;1.92;1.60;;;19.50;67.60;;;;;;10092275;28;20018;-61
2022/05/23 03:28:45;;;;;;;2.00;1.70;;;19.10;69.20;;;;;;10094928;28;20402;-62
2022/05/23 03:33:36;;;;;;;3.10;1.60;;;19.30;69.20;;;;;;10097504;28;20048;-61
2022/05/23 03:38:27;;;;;;;2.20;1.58;;;19.40;70.00;;;;;;10095542;28;20059;-63
2022/05/23 03:43:17;;;;;;;4.13;2.17;;;19.30;71.10;;;;;;10096426;28;20028;-64
2022/05/23 03:48:09;;;;;;;3.05;1.83;;;19.20;72.80;;;;;;10096373;28;20100;-63
2022/05/23 03:53:01;;;;;;;4.03;2.42;;;19.10;74.20;;;;;;10096935;28;20040;-61
2022/05/23 03:57:52;;;;;;;2.40;1.90;;;19.20;74.40;;;;;;10098653;28;20101;-62
2022/05/23 04:02:43;;;;;;;4.93;2.08;;;19.30;74.30;;;;;;10094934;28;20095;-62
2022/05/23 04:07:38;;;;;;;3.50;1.85;;;19.30;74.80;;;;;;10095205;28;20029;-63
2022/05/23 04:12:29;;;;;;;;;;;19.40;75.30;;;;;;10096211;28;20867;-62
2022/05/23 04:17:19;;;;;;;3.97;2.13;;;19.40;76.40;;;;;;10096299;28;20141;-63
2022/05/23 04:22:10;;;;;;;2.78;2.33;;;19.20;76.20;;;;;;10089940;28;20036;-62
2022/05/23 04:27:01;;;;;;;3.10;2.17;;;19.10;77.10;;;;;;10101943;28;20048;-63
2022/05/23 04:31:51;;;;;;;5.63;2.47;;;18.80;78.10;;;;;;10093590;28;20695;-63
2022/05/23 04:36:42;;;;;;;2.75;1.90;;;18.70;80.00;;;;;;10093551;28;20025;-62
2022/05/23 04:41:33;;;;;;;3.13;1.80;;;18.60;81.00;;;;;;10096181;28;20495;-63
2022/05/23 04:46:25;;;;;;;3.13;1.83;;;18.50;81.30;;;;;;10093864;28;20035;-63
2022/05/23 04:51:15;;;;;;;4.40;2.03;;;18.40;81.90;;;;;;10092824;28;20429;-63
2022/05/23 04:56:06;;;;;;;4.82;2.28;;;18.40;82.30;;;;;;10096665;28;20048;-62
2022/05/23 05:01:00;;;;;;;4.65;2.40;;;18.70;82.20;;;;;;10093324;28;20028;-62
2022/05/23 05:05:50;;;;;;;4.18;2.50;;;18.80;82.60;;;;;;10096242;28;20024;-62
2022/05/23 05:10:41;;;;;;;2.45;1.88;;;19.00;82.80;;;;;;10094400;28;20067;-62
2022/05/23 05:15:33;;;;;;;3.35;2.40;;;19.10;83.10;;;;;;10095669;28;20044;-63
2022/05/23 05:20:24;;;;;;;2.80;2.10;;;19.10;83.30;;;;;;10080009;28;20562;-63
2022/05/23 05:25:16;;;;;;;2.78;2.20;;;19.20;83.70;;;;;;10097973;28;20112;-63
2022/05/23 05:30:11;;;;;;;8.57;3.15;;;19.10;84.00;;;;;;10094164;28;20581;-63
2022/05/23 05:35:24;;;;;;;4.05;2.47;;;19.00;84.60;;;;;;10093364;28;20025;-61
2022/05/23 05:40:20;;;;;;;4.22;2.30;;;19.00;85.10;;;;;;10089323;28;20225;-62
2022/05/23 05:45:22;;;;;;;3.60;2.20;;;19.10;85.00;;;;;;10091717;28;20518;-63
2022/05/23 05:50:19;;;;;;;5.30;2.70;;;19.10;85.10;;;;;;10101931;28;20037;-64
2022/05/23 05:55:10;;;;;;;4.32;2.60;;;19.00;85.50;;;;;;10097740;28;20041;-63
2022/05/23 06:00:00;;;;;;;4.18;2.78;;;19.20;85.60;;;;;;10098880;28;20013;-62
2022/05/23 06:04:51;;;;;;;6.43;2.75;;;19.20;86.70;;;;;;10107615;28;20040;-63
2022/05/23 06:14:51;;;;;;;3.50;2.53;;;18.90;87.50;;;;;;10108544;28;20567;-59
2022/05/23 06:19:45;;;;;;;4.97;2.67;;;19.00;87.70;;;;;;10093595;28;20257;-67
2022/05/23 06:24:36;;;;;;;4.85;2.72;;;18.90;87.90;;;;;;10101914;28;20319;-66
2022/05/23 06:29:27;;;;;;;3.05;2.50;;;19.00;87.90;;;;;;10096742;28;20491;-62
2022/05/23 06:34:18;;;;;;;3.95;2.35;;;19.10;87.80;;;;;;10103107;28;20025;-66
2022/05/23 06:39:08;;;;;;;4.95;3.30;;;19.10;87.90;;;;;;10106442;28;20078;-66
2022/05/23 06:43:59;;;;;;;2.63;2.28;;;19.40;87.40;;;;;;10125627;28;20013;-73
2022/05/23 06:48:50;;;;;;;2.70;2.20;;;19.60;87.20;;;;;;10118506;28;20029;-67
2022/05/23 06:53:40;;;;;;;5.22;2.70;;;19.60;87.50;;;;;;10096576;28;20576;-64
2022/05/23 06:58:31;;;;;;;5.28;2.88;;;19.80;86.80;;;;;;10098492;28;20032;-66
2022/05/23 07:03:22;;;;;;;3.08;2.08;;;20.10;86.60;;;;;;10104456;28;20107;-71
2022/05/23 07:13:22;;;;;;;3.15;2.10;;;20.60;85.50;;;;;;10122742;28;20324;-69
2022/05/23 07:18:14;;;;;;;5.25;3.13;;;20.90;85.10;;;;;;10130753;28;20331;-67
2022/05/23 07:23:05;;;;;;;2.75;2.35;;;20.90;85.20;;;;;;10122720;28;20039;-66
2022/05/23 07:27:55;;;;;;;5.88;3.30;;;20.90;85.00;;;;;;10098220;28;20051;-68
2022/05/23 07:32:47;;;;;;;6.10;3.35;;;21.20;84.70;;;;;;10096042;28;20039;-67
2022/05/23 07:37:37;;;;;;;7.05;2.90;;;21.30;84.40;;;;;;10095026;28;20046;-67
2022/05/23 07:42:29;;;;;;;3.95;2.92;;;21.40;84.40;;;;;;10122722;28;20028;-70
2022/05/23 07:47:20;;;;;;;4.72;2.63;;;21.60;84.30;;;;;;10120667;28;20510;-68
2022/05/23 07:52:10;;;;;;;3.45;2.13;;;21.50;84.30;;;;;;10126880;28;20032;-66
2022/05/23 08:02:11;;;;;;;2.97;2.53;;;21.60;84.00;;;;;;10106436;28;20047;-66
2022/05/23 08:07:03;;;;;;;4.47;2.75;;;21.70;83.60;;;;;;10095262;28;20354;-71
2022/05/23 08:11:54;;;;;;;3.13;2.03;;;21.80;83.40;;;;;;10092970;28;20124;-70
2022/05/23 08:16:46;;;;;;;9.07;2.95;;;21.80;83.20;;;;;;10095989;28;20052;-68
2022/05/23 08:21:45;;;;;;;3.25;2.42;;;22.10;82.80;;;;;;10106298;28;20119;-66
2022/05/23 08:26:35;;;;;;;3.80;2.10;;;22.30;82.00;;;;;;10096314;28;20117;-67
2022/05/23 08:31:26;;;;;;;4.43;2.13;;;22.40;81.70;;;;;;10120001;28;20429;-71
2022/05/23 08:36:17;;;;;;;4.15;2.40;;;22.30;81.40;;;;;;10125276;28;20021;-70
2022/05/23 08:41:14;;;;;;;3.60;2.53;;;22.50;81.40;;;;;;10122565;28;20050;-69
2022/05/23 08:46:06;;;;;;;4.05;1.90;;;22.80;80.70;;;;;;10115598;28;20425;-67
2022/05/23 08:51:07;;;;;;;2.58;1.73;;;22.80;80.30;;;;;;10122872;28;20511;-71
2022/05/23 08:56:02;;;;;;;3.08;2.42;;;22.90;79.80;;;;;;10122068;28;20036;-69
2022/05/23 09:00:58;;;;;;;2.67;2.22;;;23.10;79.20;;;;;;10114926;28;20062;-69
2022/05/23 09:06:32;;;;;;;3.33;2.05;;;23.40;78.60;;;;;;10113071;28;20028;-66
2022/05/23 09:11:30;;;;;;;3.85;1.95;;;23.70;77.60;;;;;;10111524;28;20075;-66
2022/05/23 09:16:21;;;;;;;2.92;2.08;;;23.90;77.50;;;;;;10155105;28;20021;-69
2022/05/23 09:21:11;;;;;;;5.85;2.50;;;23.80;77.30;;;;;;10105377;28;20437;-67
2022/05/23 09:26:09;;;;;;;4.60;2.45;;;23.40;77.70;;;;;;10097911;28;20034;-63
2022/05/23 09:31:40;;;;;;;5.30;2.67;;;23.20;78.10;;;;;;10103056;28;20041;-61
2022/05/23 09:36:40;;;;;;;4.03;2.22;;;22.90;78.50;;;;;;10114465;28;20051;-63
2022/05/23 09:52:21;;;;;;;4.70;3.00;;;21.80;80.80;;;;;;10121927;28;20043;-62
2022/05/23 09:57:24;;;;;;;5.72;3.03;;;21.50;82.30;;;;;;10126671;28;20099;-63
2022/05/23 10:02:29;;;;;;;6.13;3.63;;;21.10;82.80;;;;;;10105857;28;20556;-62
2022/05/23 10:07:27;;;;;;;11.30;4.43;;;20.90;84.30;;;;;;10104196;28;20103;-62
2022/05/23 10:12:21;;;;;;;8.38;4.00;;;20.70;85.10;;;;;;10100593;28;20045;-59
2022/05/23 10:17:27;;;;;;;5.13;3.22;;;20.60;85.90;;;;;;10102225;28;20116;-63
2022/05/23 10:22:25;;;;;;;4.57;3.22;;;20.60;87.10;;;;;;10104245;28;20546;-62
2022/05/23 10:27:38;;;;;;;5.32;3.45;;;20.40;88.00;;;;;;10103882;28;20102;-63
2022/05/23 10:32:37;;;;;;;8.18;3.58;;;20.30;88.60;;;;;;10092939;28;20075;-63
2022/05/23 10:37:32;;;;;;;4.63;3.42;;;20.50;89.00;;;;;;10141312;28;20094;-68
2022/05/23 10:42:38;;;;;;;;;;;20.60;89.30;;;;;;10094048;28;20109;-65
2022/05/23 10:47:38;;;;;;;6.15;4.25;;;20.60;90.00;;;;;;10094243;28;20279;-64
2022/05/23 10:52:37;;;;;;;8.25;3.17;;;20.90;89.40;;;;;;10109319;28;20048;-64
2022/05/23 10:57:50;;;;;;;4.60;4.00;;;20.90;90.00;;;;;;10097164;28;20044;-64
2022/05/23 11:02:53;;;;;;;5.15;3.20;;;21.10;90.30;;;;;;10103336;28;20090;-64
2022/05/23 11:07:54;;;;;;;8.48;4.28;;;21.10;90.10;;;;;;10105289;28;20102;-64
2022/05/23 11:12:51;;;;;;;5.18;3.00;;;21.10;90.50;;;;;;10102378;28;20127;-69
2022/05/23 11:17:50;;;;;;;7.88;3.47;;;21.10;90.50;;;;;;10108805;28;20025;-69
2022/05/23 11:23:08;;;;;;;5.13;3.50;;;21.20;90.60;;;;;;10113164;28;20048;-64
2022/05/23 11:38:30;;;;;;;5.25;2.85;;;21.60;90.40;;;;;;10104072;28;20024;-61
2022/05/23 11:43:23;;;;;;;6.65;3.35;;;21.80;90.40;;;;;;10102544;28;20487;-62
2022/05/23 11:48:41;;;;;;;5.30;3.78;;;22.00;90.40;;;;;;10103043;28;20096;-64
2022/05/23 11:53:34;;;;;;;7.03;3.80;;;22.20;90.50;;;;;;10095074;28;20024;-65
2022/05/23 11:58:49;;;;;;;4.85;3.17;;;22.30;90.50;;;;;;10096160;28;20358;-66
2022/05/23 12:03:55;;;;;;;5.27;2.90;;;22.60;90.40;;;;;;10097274;28;20505;-63
2022/05/23 12:08:58;;;;;;;5.40;3.20;;;22.70;90.30;;;;;;10102894;28;20021;-63
2022/05/23 12:13:51;;;;;;;7.57;3.75;;;23.30;90.40;;;;;;10101029;28;20049;-65
2022/05/23 12:18:48;;;;;;;6.75;3.35;;;23.90;89.90;;;;;;10101708;28;20013;-68
2022/05/23 12:23:41;;;;;;;5.93;3.15;;;24.60;89.40;;;;;;10100360;28;20043;-63
2022/05/23 12:29:02;;;;;;;5.00;4.05;;;24.90;88.90;;;;;;10096948;28;20056;-67
2022/05/23 12:34:08;;;;;;;5.20;3.50;;;24.80;89.00;;;;;;10087997;28;20037;-65
2022/05/23 12:39:54;;;;;;;5.43;3.58;;;25.50;88.60;;;;;;10090525;28;20431;-66
2022/05/23 12:45:15;;;;;;;5.07;3.10;;;26.10;87.90;;;;;;10023878;28;20149;-66
2022/05/23 12:50:18;;;;;;;5.72;3.70;;;26.80;88.00;;;;;;10091161;28;20043;-67
2022/05/23 12:55:31;;;;;;;5.95;4.65;;;28.00;86.30;;;;;;10091244;28;20380;-66
2022/05/23 13:00:27;;;;;;;6.47;3.75;;;29.20;83.40;;;;;;10121204;28;20020;-64
2022/05/23 13:05:27;;;;;;;6.78;3.50;;;30.10;81.70;;;;;;10123829;28;20028;-64
2022/05/23 13:10:27;;;;;;;4.72;2.97;;;30.80;80.10;;;;;;10123991;28;20117;-62
2022/05/23 13:15:24;;;;;;;7.45;4.07;;;31.60;78.30;;;;;;10089303;28;20021;-65
2022/05/23 13:25:33;;;;;;;8.60;4.03;;;32.60;75.40;;;;;;10123530;28;20059;-62
2022/05/23 13:30:37;;;;;;;10.02;4.05;;;32.80;74.30;;;;;;10109393;28;20059;-63
2022/05/23 13:35:28;;;;;;;5.93;4.25;;;33.10;73.00;;;;;;10114555;28;20111;-62
2022/05/23 13:40:26;;;;;;;7.60;3.95;;;33.60;71.90;;;;;;10113527;28;20021;-64
2022/05/23 13:45:25;;;;;;;7.93;4.30;;;34.30;70.30;;;;;;10098695;28;20503;-62
2022/05/23 13:50:23;;;;;;;6.70;4.28;;;32.30;70.30;;;;;;10094561;28;20040;-65
2022/05/23 13:55:20;;;;;;;5.10;4.25;;;32.50;71.40;;;;;;10095656;28;20029;-65
2022/05/23 14:00:20;;;;;;;5.65;3.50;;;33.40;69.50;;;;;;10115485;28;20029;-65
2022/05/23 14:05:11;;;;;;;4.50;2.28;;;34.70;67.00;;;;;;10095642;28;20064;-64
2022/05/23 14:10:03;;;;;;;3.33;2.25;;;35.20;63.80;;;;;;10102025;28;20068;-64
2022/05/23 14:14:57;;;;;;;3.55;2.10;;;34.90;61.50;;;;;;10117802;28;20036;-69
2022/05/23 14:19:51;;;;;;;5.22;2.25;;;33.90;59.80;;;;;;10114840;28;20067;-64
2022/05/23 14:24:48;;;;;;;3.08;1.88;;;34.40;58.80;;;;;;10103139;28;20060;-68
2022/05/23 14:29:39;;;;;;;4.97;2.25;;;34.10;56.70;;;;;;10122401;28;20518;-66
2022/05/23 14:34:29;;;;;;;4.47;2.27;;;34.50;56.50;;;;;;10113451;28;20033;-70
2022/05/23 14:39:26;;;;;;;4.13;2.63;;;35.10;54.80;;;;;;10127507;28;20509;-65
2022/05/23 14:44:19;;;;;;;7.68;3.42;;;35.20;54.10;;;;;;10129030;28;20115;-63
2022/05/23 14:49:16;;;;;;;4.82;3.00;;;35.50;54.30;;;;;;10131861;28;20032;-67
2022/05/23 15:04:31;;;;;;;5.25;3.25;;;35.30;54.20;;;;;;10091873;28;20502;-67
2022/05/23 15:09:22;;;;;;;4.55;2.10;;;35.30;54.00;;;;;;10096007;28;20563;-65
2022/05/23 15:14:15;;;;;;;3.45;2.28;;;33.40;54.70;;;;;;10098917;28;20044;-66
2022/05/23 15:19:08;;;;;;;3.78;3.03;;;31.10;56.60;;;;;;10095130;28;20033;-65
2022/05/23 15:23:59;;;;;;;;;;;29.70;57.60;;;;;;10100422;28;20176;-65
2022/05/23 15:28:51;;;;;;;3.72;1.77;;;28.90;58.60;;;;;;10094828;28;20083;-64
2022/05/23 15:33:42;;;;;;;3.75;1.60;;;28.60;58.20;;;;;;10105268;28;20311;-66
2022/05/23 15:38:33;;;;;;;4.47;2.28;;;28.60;57.30;;;;;;10124010;28;20260;-67
2022/05/23 15:43:25;;;;;;;2.42;1.30;;;28.70;55.90;;;;;;10128554;28;20025;-68
2022/05/23 15:48:19;;;;;;;4.50;1.50;;;28.20;55.40;;;;;;10124823;28;20021;-70
2022/05/23 15:53:10;;;;;;;2.00;1.15;;;27.70;55.30;;;;;;10125700;28;20043;-65
2022/05/23 15:58:01;;;;;;;6.07;1.80;;;27.60;55.10;;;;;;10123504;28;20121;-66
2022/05/23 16:02:53;;;;;;;5.03;1.42;;;27.30;55.00;;;;;;10120066;28;20501;-70
2022/05/23 16:07:44;;;;;;;2.47;1.88;;;27.40;54.80;;;;;;10121779;28;20029;-65
2022/05/23 16:12:38;;;;;;;3.33;1.10;;;27.30;54.80;;;;;;10109781;28;20427;-67
2022/05/23 16:17:29;;;;;;;2.20;1.13;;;27.20;54.60;;;;;;10117121;28;20054;-66
2022/05/23 16:22:23;;;;;;;1.88;1.58;;;27.00;53.60;;;;;;10114183;28;20045;-58
2022/05/23 16:27:13;;;;;;;2.63;1.27;;;26.90;53.20;;;;;;10101624;28;20057;-61
2022/05/23 16:32:04;;;;;;;3.90;1.05;;;26.80;52.80;;;;;;10096452;28;20044;-59
2022/05/23 16:36:55;;;;;;;2.72;1.27;;;26.90;52.30;;;;;;10091815;28;20458;-60
2022/05/23 16:41:47;;;;;;;4.75;1.38;;;26.70;52.30;;;;;;10096199;28;20021;-61
2022/05/23 16:46:39;;;;;;;4.93;1.50;;;26.70;52.30;;;;;;10100259;28;20518;-63
2022/05/23 16:51:30;;;;;;;2.67;1.50;;;26.60;53.00;;;;;;10104255;28;20036;-63
2022/05/23 16:56:21;;;;;;;4.57;1.70;;;26.40;52.60;;;;;;10100739;28;20033;-62
2022/05/23 17:01:12;;;;;;;5.38;1.48;;;26.40;52.80;;;;;;10081463;28;20479;-64
2022/05/23 17:06:02;;;;;;;1.77;1.00;;;26.20;52.80;;;;;;10094717;28;20028;-68
2022/05/23 17:10:53;;;;;;;1.88;1.20;;;26.20;52.90;;;;;;10089098;28;20045;-63
2022/05/23 17:15:44;;;;;;;3.55;1.50;;;26.30;53.00;;;;;;10095361;28;20017;-61
2022/05/23 17:20:38;;;;;;;3.35;1.50;;;26.10;53.30;;;;;;10094801;28;20047;-64
2022/05/23 17:25:29;;;;;;;2.03;1.17;;;25.90;53.80;;;;;;10101633;28;20032;-67
2022/05/23 17:30:21;;;;;;;2.20;1.05;;;25.70;54.20;;;;;;10094974;28;20140;-70
2022/05/23 17:35:12;;;;;;;4.78;1.35;;;25.60;54.70;;;;;;10091579;28;20450;-64
2022/05/23 17:40:05;;;;;;;1.63;0.90;;;25.40;55.00;;;;;;10102606;28;20076;-63
2022/05/23 17:44:55;;;;;;;2.78;1.10;;;25.20;56.00;;;;;;10104195;28;20019;-64
2022/05/23 17:49:46;;;;;;;4.38;1.00;;;25.00;56.80;;;;;;10102717;28;20032;-64
2022/05/23 17:54:37;;;;;;;4.00;1.17;;;24.90;57.60;;;;;;10112092;28;20025;-65
2022/05/23 17:59:29;;;;;;;3.42;0.98;;;24.60;58.50;;;;;;10103274;28;20515;-66
2022/05/23 18:04:20;;;;;;;2.25;1.00;;;24.40;59.50;;;;;;10103369;28;20112;-66
2022/05/23 18:09:10;;;;;;;1.95;0.93;;;24.30;60.20;;;;;;10101839;28;20178;-63
2022/05/23 18:19:13;;;;;;;1.88;0.98;;;24.00;61.80;;;;;;10117002;28;20510;-69
2022/05/23 18:24:05;;;;;;;1.23;0.70;;;24.00;62.40;;;;;;10106956;28;20029;-69
2022/05/23 18:28:55;;;;;;;0.77;0.68;;;23.90;62.50;;;;;;10101349;28;20044;-68
2022/05/23 18:33:46;;;;;;;1.42;0.90;;;23.90;63.20;;;;;;10101118;28;20040;-68
2022/05/23 18:38:37;;;;;;;1.45;0.90;;;23.80;63.30;;;;;;10099847;28;20491;-68
2022/05/23 18:43:28;;;;;;;0.98;0.68;;;23.80;63.50;;;;;;10101020;28;20035;-68
2022/05/23 18:53:27;;;;;;;1.13;0.80;;;23.80;64.40;;;;;;10107158;28;20048;-72
2022/05/23 18:58:20;;;;;;;3.08;1.10;;;23.70;64.90;;;;;;10101292;28;20027;-73
2022/05/23 19:03:11;;;;;;;2.22;1.05;;;23.60;65.00;;;;;;10098461;28;20043;-71
2022/05/23 19:08:02;;;;;;;2.42;1.50;;;23.50;65.60;;;;;;10099649;28;20044;-69
2022/05/23 19:12:53;;;;;;;2.20;0.95;;;23.40;66.20;;;;;;10105095;28;20070;-71
2022/05/23 19:17:44;;;;;;;1.88;0.68;;;23.20;67.00;;;;;;10101826;28;20467;-70
2022/05/23 19:22:35;;;;;;;1.85;0.63;;;22.90;68.50;;;;;;10100740;28;20029;-71
2022/05/23 19:27:26;;;;;;;3.30;0.70;;;22.90;68.90;;;;;;10098654;28;20045;-71
2022/05/23 19:32:19;;;;;;;1.10;0.75;;;22.80;69.30;;;;;;10107618;28;20045;-70
2022/05/23 19:37:10;;;;;;;0.77;0.60;;;22.90;69.40;;;;;;10095499;28;20029;-70
2022/05/23 19:42:04;;;;;;;0.95;0.70;;;22.80;69.70;;;;;;10105032;28;20499;-67
2022/05/23 19:46:54;;;;;;;2.25;0.82;;;22.70;70.30;;;;;;10128950;28;20054;-68
2022/05/23 19:51:45;;;;;;;1.00;0.85;;;22.80;70.30;;;;;;10123888;28;20032;-70
2022/05/23 19:56:36;;;;;;;1.33;0.80;;;22.80;70.70;;;;;;10121036;28;20535;-65
2022/05/23 20:07:01;;;;;;;1.60;0.68;;;22.80;70.90;;;;;;10097759;28;20060;-73
2022/05/23 20:07:02;;;;;;;1.67;0.90;;;22.70;71.50;;;;;;10102528;28;20021;-71
2022/05/23 20:11:53;;;;;;;1.02;0.60;;;22.80;71.50;;;;;;10102409;28;20041;-71
2022/05/23 20:16:44;;;;;;;1.10;0.60;;;22.70;71.70;;;;;;10098559;28;20024;-69
2022/05/23 20:21:37;;;;;;;1.20;0.70;;;22.60;72.20;;;;;;10114042;28;20052;-72
2022/05/23 20:26:28;;;;;;;1.65;0.75;;;22.60;72.30;;;;;;10098662;28;20103;-73
2022/05/23 20:31:18;;;;;;;1.38;0.60;;;22.60;72.80;;;;;;10097307;28;20044;-74
2022/05/23 20:36:09;;;;;;;0.90;0.55;;;22.60;73.00;;;;;;10097069;28;20021;-72
2022/05/23 20:41:00;;;;;;;1.33;0.70;;;22.50;73.30;;;;;;10099055;28;20040;-71
2022/05/23 20:45:51;;;;;;;3.78;0.93;;;22.40;74.00;;;;;;10106010;28;20032;-70
2022/05/23 20:50:47;;;;;;;2.72;0.65;;;22.20;74.50;;;;;;10115539;28;20032;-73
2022/05/23 20:55:38;;;;;;;1.52;0.60;;;22.20;74.90;;;;;;10130453;28;20347;-71
2022/05/23 21:00:29;;;;;;;1.17;0.80;;;22.20;75.10;;;;;;10124441;28;20032;-69
2022/05/23 21:05:25;;;;;;;2.45;0.80;;;22.00;75.70;;;;;;10120232;28;20099;-75
2022/05/23 21:10:17;;;;;;;0.75;0.73;;;22.20;75.80;;;;;;10097050;28;20083;-75
2022/05/23 21:15:09;;;;;;;2.35;0.82;;;22.30;76.10;;;;;;10098234;28;20037;-73
2022/05/23 21:20:00;;;;;;;3.67;1.77;;;22.30;76.50;;;;;;10137511;28;20022;-70
2022/05/23 21:24:51;;;;;;;2.50;0.90;;;22.30;76.50;;;;;;10097800;28;20025;-73
2022/05/23 21:29:42;;;;;;;3.28;1.58;;;22.30;76.90;;;;;;10098077;28;20127;-71
2022/05/23 21:34:34;;;;;;;1.23;1.02;;;22.30;77.00;;;;;;10143268;28;20032;-71
2022/05/23 21:39:25;;;;;;;1.42;0.70;;;22.30;77.40;;;;;;10129524;28;20025;-73
2022/05/23 21:49:25;;;;;;;1.00;0.98;;;22.10;78.30;;;;;;10097618;28;20115;-71
2022/05/23 21:54:16;;;;;;;1.02;0.60;;;22.10;78.50;;;;;;10128504;28;20179;-72
2022/05/23 21:59:07;;;;;;;0.35;0.35;;;22.10;78.80;;;;;;10102397;28;20021;-70
2022/05/23 22:04:01;;;;;;;0.30;0.30;;;21.80;79.10;;;;;;10098386;28;20405;-70
2022/05/23 22:08:54;;;;;;;0.63;0.37;;;21.20;81.00;;;;;;10096698;28;20017;-71
2022/05/23 22:13:46;;;;;;;1.10;0.38;;;20.70;82.60;;;;;;10102387;28;20570;-76
2022/05/23 22:18:38;;;;;;;0.80;0.50;;;20.70;83.10;;;;;;10095560;28;20485;-72
2022/05/23 22:23:28;;;;;;;0.30;0.30;;;20.60;83.80;;;;;;10095717;28;20502;-70
2022/05/23 22:28:20;;;;;;;0.82;0.50;;;20.50;84.10;;;;;;10097612;28;20125;-68
2022/05/23 22:33:10;;;;;;;0.90;0.45;;;20.50;84.70;;;;;;10100332;28;20047;-71
2022/05/23 22:38:02;;;;;;;0.70;0.50;;;20.50;85.70;;;;;;10099757;28;20120;-72
2022/05/23 22:42:54;;;;;;;0.73;0.60;;;20.30;86.30;;;;;;10103407;28;20493;-70
2022/05/23 22:47:44;;;;;;;0.80;0.60;;;20.40;86.80;;;;;;10104565;28;20097;-69
2022/05/23 22:52:35;;;;;;;0.50;0.50;;;20.30;87.00;;;;;;10102551;28;20563;-69
2022/05/23 22:57:27;;;;;;;1.13;0.47;;;20.30;87.40;;;;;;10112996;28;20025;-69
2022/05/23 23:02:18;;;;;;;0.82;0.60;;;20.30;87.60;;;;;;10100221;28;20481;-69
2022/05/23 23:07:10;;;;;;;1.48;0.60;;;20.20;87.80;;;;;;10099086;28;20025;-68
2022/05/23 23:12:01;;;;;;;0.90;0.80;;;20.30;88.00;;;;;;10102361;28;20128;-69
2022/05/23 23:16:59;;;;;;;1.90;0.80;;;20.40;88.00;;;;;;10099041;28;20487;-70
2022/05/23 23:21:50;;;;;;;1.70;0.90;;;20.30;88.30;;;;;;10100153;28;20502;-72
2022/05/23 23:26:40;;;;;;;0.60;0.60;;;20.30;88.60;;;;;;10105936;28;20045;-71
2022/05/23 23:31:31;;;;;;;0.77;0.52;;;20.40;88.50;;;;;;10100101;28;20036;-71
2022/05/23 23:41:31;;;;;;;0.98;0.60;;;20.50;88.30;;;;;;10101498;28;20395;-69
2022/05/23 23:46:22;;;;;;;0.77;0.65;;;20.40;88.10;;;;;;10097802;28;20117;-70
2022/05/23 23:51:13;;;;;;;1.50;0.73;;;20.50;88.10;;;;;;10100065;28;20076;-68
2022/05/23 23:56:05;;;;;;;1.48;0.50;;;20.50;87.90;;;;;;10097546;28;20513;-67
